Time,TemperatureF,DewpointF,PressureIn,WindDirection,WindDirectionDegrees,WindSpeedMPH,WindSpeedGustMPH,Humidity,HourlyPrecipIn,Conditions,Clouds,dailyrainin,SoftwareType,DateUTC
2013-03-10 00:00:00,27.4,22.4,30.22,SSE,157,0.0,-999.0,81,0.00,,,0.00,MetarLogicWeatherSta,2013-03-10 05:00:00,
2013-03-10 00:05:00,27.2,22.1,30.22,SSE,157,0.0,-999.0,80,0.00,,,0.00,MetarLogicWeatherSta,2013-03-10 05:05:00,
2013-03-10 00:11:00,27.2,22.2,30.22,SSE,157,0.0,-999.0,81,0.00,,,0.00,MetarLogicWeatherSta,2013-03-10 05:11:00,
2013-03-10 00:16:00,27.3,22.4,30.22,SSE,157,0.0,-999.0,81,0.00,,,0.00,MetarLogicWeatherSta,2013-03-10 05:16:00,
2013-03-10 00:21:00,27.2,22.3,30.21,SSE,157,0.0,-999.0,81,0.00,,,0.00,MetarLogicWeatherSta,2013-03-10 05:21:00,
2013-03-10 00:26:00,27.4,22.7,30.21,SSE,157,0.0,-999.0,82,0.00,,,0.00,MetarLogicWeatherSta,2013-03-10 05:26:00,
2013-03-10 00:31:00,27.4,22.7,30.21,SE,135,0.0,-999.0,82,0.00,,,0.00,MetarLogicWeatherSta,2013-03-10 05:31:00,
2013-03-10 00:36:00,27.4,22.8,30.21,SE,135,0.0,-999.0,82,0.00,,,0.00,MetarLogicWeatherSta,2013-03-10 05:36:00,
2013-03-10 00:41:00,27.4,22.8,30.21,SSE,157,0.0,-999.0,82,0.00,,,0.00,MetarLogicWeatherSta,2013-03-10 05:41:00,
2013-03-10 00:46:00,27.4,22.7,30.20,SSE,157,0.0,-999.0,82,0.00,,,0.00,MetarLogicWeatherSta,2013-03-10 05:46:00,
2013-03-10 00:51:00,27.3,22.9,30.20,SSE,157,0.0,-999.0,83,0.00,,,0.00,MetarLogicWeatherSta,2013-03-10 05:51:00,
2013-03-10 00:58:00,27.4,22.6,30.20,SSE,157,0.0,-999.0,81,0.00,,,0.00,MetarLogicWeatherSta,2013-03-10 05:58:00,
2013-03-10 01:03:00,27.6,23.5,30.20,SE,135,0.0,-999.0,84,0.00,,,0.00,MetarLogicWeatherSta,2013-03-10 06:03:00,
2013-03-10 01:08:00,27.7,23.8,30.19,ESE,112,0.0,-999.0,85,0.00,,,0.00,MetarLogicWeatherSta,2013-03-10 06:08:00,
2013-03-10 01:13:00,27.6,23.6,30.19,SE,135,0.0,-999.0,84,0.00,,,0.00,MetarLogicWeatherSta,2013-03-10 06:13:00,
2013-03-10 01:18:00,28.0,23.9,30.19,South,180,0.0,-999.0,84,0.00,,,0.00,MetarLogicWeatherSta,2013-03-10 06:18:00,
2013-03-10 01:23:00,28.1,23.8,30.19,South,180,0.0,-999.0,84,0.00,,,0.00,MetarLogicWeatherSta,2013-03-10 06:23:00,
2013-03-10 01:28:00,27.7,23.4,30.19,South,180,0.0,-999.0,83,0.00,,,0.00,MetarLogicWeatherSta,2013-03-10 06:28:00,
2013-03-10 01:33:00,27.8,23.8,30.19,South,180,0.0,-999.0,84,0.00,,,0.00,MetarLogicWeatherSta,2013-03-10 06:33:00,
2013-03-10 01:38:00,27.9,23.8,30.19,SE,135,0.0,-999.0,84,0.00,,,0.00,MetarLogicWeatherSta,2013-03-10 06:38:00,
2013-03-10 01:43:00,27.9,24.1,30.18,SSE,157,0.0,-999.0,85,0.00,,,0.00,MetarLogicWeatherSta,2013-03-10 06:43:00,
2013-03-10 01:48:00,27.7,23.7,30.18,SSE,157,0.0,-999.0,84,0.00,,,0.00,MetarLogicWeatherSta,2013-03-10 06:48:00,
2013-03-10 01:53:00,27.8,23.8,30.18,SSE,157,0.0,-999.0,84,0.00,,,0.00,MetarLogicWeatherSta,2013-03-10 06:53:00,
2013-03-10 01:58:00,27.7,23.6,30.17,SSE,157,0.0,-999.0,84,0.00,,,0.00,MetarLogicWeatherSta,2013-03-10 06:58:00,
2013-03-10 03:03:00,27.6,23.6,30.17,SSE,157,0.0,-999.0,84,0.00,,,0.00,MetarLogicWeatherSta,2013-03-10 07:03:00,
2013-03-10 03:08:00,27.4,23.4,30.17,SSE,157,0.0,-999.0,84,0.00,,,0.00,MetarLogicWeatherSta,2013-03-10 07:08:00,
2013-03-10 03:13:00,27.5,23.6,30.17,SSE,157,0.0,-999.0,85,0.00,,,0.00,MetarLogicWeatherSta,2013-03-10 07:13:00,
2013-03-10 03:18:00,27.3,23.4,30.17,South,180,0.0,-999.0,85,0.00,,,0.00,MetarLogicWeatherSta,2013-03-10 07:18:00,
2013-03-10 03:23:00,27.3,23.5,30.17,South,180,0.0,-999.0,85,0.00,,,0.00,MetarLogicWeatherSta,2013-03-10 07:23:00,
2013-03-10 03:28:00,27.2,23.3,30.17,SSE,157,0.0,-999.0,85,0.00,,,0.00,MetarLogicWeatherSta,2013-03-10 07:28:00,
2013-03-10 03:33:00,27.2,23.5,30.16,SE,135,0.0,-999.0,85,0.00,,,0.00,MetarLogicWeatherSta,2013-03-10 07:33:00,
2013-03-10 03:38:00,27.4,23.9,30.15,SE,135,0.0,-999.0,86,0.00,,,0.00,MetarLogicWeatherSta,2013-03-10 07:38:00,
2013-03-10 03:43:00,27.7,24.1,30.15,South,180,0.0,-999.0,86,0.00,,,0.00,MetarLogicWeatherSta,2013-03-10 07:43:00,
2013-03-10 03:48:00,27.6,24.0,30.16,South,180,0.0,-999.0,86,0.00,,,0.00,MetarLogicWeatherSta,2013-03-10 07:48:00,
2013-03-10 03:53:00,27.3,23.7,30.15,SSE,157,0.0,-999.0,86,0.00,,,0.00,MetarLogicWeatherSta,2013-03-10 07:53:00,
2013-03-10 03:58:00,27.2,23.8,30.15,SSE,157,0.0,-999.0,86,0.00,,,0.00,MetarLogicWeatherSta,2013-03-10 07:58:00,
2013-03-10 04:03:00,27.4,23.9,30.15,SSE,157,0.0,-999.0,86,0.00,,,0.00,MetarLogicWeatherSta,2013-03-10 08:03:00,
2013-03-10 04:08:00,27.2,23.7,30.15,SSE,157,0.0,-999.0,86,0.00,,,0.00,MetarLogicWeatherSta,2013-03-10 08:08:00,
2013-03-10 04:13:00,27.6,24.2,30.15,SE,135,0.0,-999.0,86,0.00,,,0.00,MetarLogicWeatherSta,2013-03-10 08:13:00,
2013-03-10 04:18:00,27.5,24.1,30.15,SSE,157,0.0,-999.0,87,0.00,,,0.00,MetarLogicWeatherSta,2013-03-10 08:18:00,
2013-03-10 04:23:00,27.7,24.2,30.14,SE,135,0.0,-999.0,86,0.00,,,0.00,MetarLogicWeatherSta,2013-03-10 08:23:00,
2013-03-10 04:28:00,27.8,24.3,30.14,SE,135,0.0,-999.0,86,0.00,,,0.00,MetarLogicWeatherSta,2013-03-10 08:28:00,
2013-03-10 04:33:00,28.1,24.4,30.14,SSE,157,0.0,-999.0,86,0.00,,,0.00,MetarLogicWeatherSta,2013-03-10 08:33:00,
2013-03-10 04:38:00,28.3,24.7,30.14,SE,135,0.0,-999.0,86,0.00,,,0.00,MetarLogicWeatherSta,2013-03-10 08:38:00,
2013-03-10 04:43:00,28.7,25.1,30.14,SE,135,0.0,-999.0,86,0.00,,,0.00,MetarLogicWeatherSta,2013-03-10 08:43:00,
2013-03-10 04:48:00,29.0,25.0,30.14,SE,135,0.0,-999.0,85,0.00,,,0.00,MetarLogicWeatherSta,2013-03-10 08:48:00,
2013-03-10 04:55:00,29.2,25.2,30.14,SE,135,0.0,-999.0,84,0.00,,,0.00,MetarLogicWeatherSta,2013-03-10 08:55:00,
2013-03-10 05:00:00,29.4,25.0,30.14,SE,135,0.0,-999.0,83,0.00,,,0.00,MetarLogicWeatherSta,2013-03-10 09:00:00,
2013-03-10 05:05:00,29.6,25.4,30.14,SE,135,0.0,-999.0,84,0.00,,,0.00,MetarLogicWeatherSta,2013-03-10 09:05:00,
2013-03-10 05:10:00,30.3,25.6,30.13,ESE,112,0.0,-999.0,82,0.00,,,0.00,MetarLogicWeatherSta,2013-03-10 09:10:00,
2013-03-10 05:15:00,31.1,26.3,30.13,South,180,0.0,-999.0,82,0.00,,,0.00,MetarLogicWeatherSta,2013-03-10 09:15:00,
2013-03-10 05:20:00,31.2,26.2,30.13,SE,135,0.0,-999.0,81,0.00,,,0.00,MetarLogicWeatherSta,2013-03-10 09:20:00,
2013-03-10 05:25:00,31.7,26.6,30.13,SE,135,0.0,-999.0,81,0.00,,,0.00,MetarLogicWeatherSta,2013-03-10 09:25:00,
2013-03-10 05:30:00,32.1,26.6,30.13,SE,135,0.0,-999.0,80,0.00,,,0.00,MetarLogicWeatherSta,2013-03-10 09:30:00,
2013-03-10 05:35:00,32.4,26.6,30.13,SSE,157,0.0,-999.0,79,0.00,,,0.00,MetarLogicWeatherSta,2013-03-10 09:35:00,
2013-03-10 05:40:00,32.6,26.7,30.13,ESE,112,0.0,-999.0,78,0.00,,,0.00,MetarLogicWeatherSta,2013-03-10 09:40:00,
2013-03-10 05:45:00,34.0,27.2,30.13,ENE,67,1.0,-999.0,76,0.00,,,0.00,MetarLogicWeatherSta,2013-03-10 09:45:00,
2013-03-10 05:50:00,35.7,27.7,30.13,ENE,67,1.0,-999.0,72,0.00,,,0.00,MetarLogicWeatherSta,2013-03-10 09:50:00,
2013-03-10 05:55:00,36.6,27.6,30.13,ESE,112,0.0,-999.0,69,0.00,,,0.00,MetarLogicWeatherSta,2013-03-10 09:55:00,
2013-03-10 06:00:00,37.7,27.9,30.13,SE,135,0.0,-999.0,67,0.00,,,0.00,MetarLogicWeatherSta,2013-03-10 10:00:00,
2013-03-10 06:05:00,38.2,27.6,30.13,ESE,112,0.0,-999.0,65,0.00,,,0.00,MetarLogicWeatherSta,2013-03-10 10:05:00,
2013-03-10 06:10:00,38.6,27.7,30.12,SE,135,0.0,-999.0,64,0.00,,,0.00,MetarLogicWeatherSta,2013-03-10 10:10:00,
2013-03-10 06:15:00,38.8,27.6,30.12,ESE,112,0.0,-999.0,63,0.00,,,0.00,MetarLogicWeatherSta,2013-03-10 10:15:00,
2013-03-10 06:20:00,38.6,27.2,30.12,East,90,1.0,-999.0,63,0.00,,,0.00,MetarLogicWeatherSta,2013-03-10 10:20:00,
2013-03-10 06:25:00,38.4,27.3,30.11,ESE,112,0.0,-999.0,64,0.00,,,0.00,MetarLogicWeatherSta,2013-03-10 10:25:00,
2013-03-10 06:30:00,38.3,27.1,30.12,ESE,112,0.0,-999.0,63,0.00,,,0.00,MetarLogicWeatherSta,2013-03-10 10:30:00,
2013-03-10 06:35:00,38.8,27.2,30.12,SSE,157,0.0,-999.0,62,0.00,,,0.00,MetarLogicWeatherSta,2013-03-10 10:35:00,
2013-03-10 06:40:00,39.1,27.0,30.11,SE,135,0.0,-999.0,61,0.00,,,0.00,MetarLogicWeatherSta,2013-03-10 10:40:00,
2013-03-10 06:45:00,39.3,26.5,30.11,SE,135,1.0,-999.0,59,0.00,,,0.00,MetarLogicWeatherSta,2013-03-10 10:45:00,
2013-03-10 06:50:00,40.0,26.6,30.11,SE,135,0.0,-999.0,58,0.00,,,0.00,MetarLogicWeatherSta,2013-03-10 10:50:00,
2013-03-10 06:55:00,40.6,26.5,30.12,SE,135,0.0,-999.0,56,0.00,,,0.00,MetarLogicWeatherSta,2013-03-10 10:55:00,
2013-03-10 07:00:00,40.9,26.3,30.11,SSE,157,0.0,-999.0,55,0.00,,,0.00,MetarLogicWeatherSta,2013-03-10 11:00:00,
2013-03-10 07:05:00,40.9,26.3,30.11,East,90,0.0,-999.0,55,0.00,,,0.00,MetarLogicWeatherSta,2013-03-10 11:05:00,
2013-03-10 07:10:00,41.3,26.3,30.11,South,180,0.0,-999.0,54,0.00,,,0.00,MetarLogicWeatherSta,2013-03-10 11:10:00,
2013-03-10 07:15:00,41.5,26.0,30.11,SSE,157,0.0,-999.0,53,0.00,,,0.00,MetarLogicWeatherSta,2013-03-10 11:15:00,
2013-03-10 07:20:00,41.8,26.6,30.12,SE,135,0.0,-999.0,54,0.00,,,0.00,MetarLogicWeatherSta,2013-03-10 11:20:00,
2013-03-10 07:25:00,41.7,27.0,30.12,South,180,0.0,-999.0,55,0.00,,,0.00,MetarLogicWeatherSta,2013-03-10 11:25:00,
2013-03-10 07:30:00,41.6,26.7,30.11,SSE,157,0.0,-999.0,55,0.00,,,0.00,MetarLogicWeatherSta,2013-03-10 11:30:00,
2013-03-10 07:35:00,41.7,26.5,30.11,South,180,0.0,-999.0,54,0.00,,,0.00,MetarLogicWeatherSta,2013-03-10 11:35:00,
2013-03-10 07:40:00,41.7,26.5,30.11,SSE,157,0.0,-999.0,54,0.00,,,0.00,MetarLogicWeatherSta,2013-03-10 11:40:00,
2013-03-10 07:45:00,42.0,26.3,30.11,SSW,202,0.0,-999.0,53,0.00,,,0.00,MetarLogicWeatherSta,2013-03-10 11:45:00,
2013-03-10 07:50:00,42.1,26.3,30.11,SE,135,0.0,-999.0,53,0.00,,,0.00,MetarLogicWeatherSta,2013-03-10 11:50:00,
2013-03-10 07:55:00,42.5,26.5,30.11,South,180,0.0,-999.0,52,0.00,,,0.00,MetarLogicWeatherSta,2013-03-10 11:55:00,
2013-03-10 08:00:00,42.7,25.1,30.11,South,180,0.0,-999.0,49,0.00,,,0.00,MetarLogicWeatherSta,2013-03-10 12:00:00,
2013-03-10 08:05:00,43.4,25.8,30.12,SSE,157,0.0,-999.0,49,0.00,,,0.00,MetarLogicWeatherSta,2013-03-10 12:05:00,
2013-03-10 08:10:00,43.9,26.1,30.12,NE,45,3.0,-999.0,49,0.00,,,0.00,MetarLogicWeatherSta,2013-03-10 12:10:00,
2013-03-10 08:15:00,43.9,25.2,30.11,NE,45,0.0,-999.0,47,0.00,,,0.00,MetarLogicWeatherSta,2013-03-10 12:15:00,
2013-03-10 08:20:00,44.3,23.9,30.11,SSE,157,0.0,-999.0,44,0.00,,,0.00,MetarLogicWeatherSta,2013-03-10 12:20:00,
2013-03-10 08:25:00,44.7,24.8,30.11,South,180,0.0,-999.0,45,0.00,,,0.00,MetarLogicWeatherSta,2013-03-10 12:25:00,
2013-03-10 08:30:00,44.8,24.4,30.11,SSW,202,0.0,-999.0,44,0.00,,,0.00,MetarLogicWeatherSta,2013-03-10 12:30:00,
2013-03-10 08:35:00,44.9,24.2,30.11,South,180,0.0,-999.0,43,0.00,,,0.00,MetarLogicWeatherSta,2013-03-10 12:35:00,
2013-03-10 08:40:00,45.1,24.4,30.11,South,180,0.0,-999.0,43,0.00,,,0.00,MetarLogicWeatherSta,2013-03-10 12:40:00,
2013-03-10 08:46:00,45.3,24.8,30.11,ESE,112,0.0,-999.0,44,0.00,,,0.00,MetarLogicWeatherSta,2013-03-10 12:46:00,
2013-03-10 08:51:00,45.9,24.7,30.11,South,180,0.0,-999.0,43,0.00,,,0.00,MetarLogicWeatherSta,2013-03-10 12:51:00,
2013-03-10 08:56:00,46.1,24.5,30.10,SE,135,0.0,-999.0,42,0.00,,,0.00,MetarLogicWeatherSta,2013-03-10 12:56:00,
2013-03-10 09:01:00,46.1,24.7,30.11,SW,225,0.0,-999.0,42,0.00,,,0.00,MetarLogicWeatherSta,2013-03-10 13:01:00,
2013-03-10 09:06:00,46.1,24.9,30.10,SSE,157,0.0,-999.0,43,0.00,,,0.00,MetarLogicWeatherSta,2013-03-10 13:06:00,
2013-03-10 09:11:00,46.4,24.4,30.10,SSW,202,4.0,-999.0,41,0.00,,,0.00,MetarLogicWeatherSta,2013-03-10 13:11:00,
2013-03-10 09:16:00,46.8,24.8,30.11,South,180,0.0,-999.0,41,0.00,,,0.00,MetarLogicWeatherSta,2013-03-10 13:16:00,
2013-03-10 09:21:00,47.2,24.9,30.11,NW,315,0.0,-999.0,41,0.00,,,0.00,MetarLogicWeatherSta,2013-03-10 13:21:00,
2013-03-10 09:26:00,47.6,25.1,30.11,SE,135,0.0,-999.0,41,0.00,,,0.00,MetarLogicWeatherSta,2013-03-10 13:26:00,
2013-03-10 09:31:00,47.8,24.9,30.11,SSE,157,0.0,-999.0,40,0.00,,,0.00,MetarLogicWeatherSta,2013-03-10 13:31:00,
2013-03-10 09:36:00,48.0,24.2,30.11,SSE,157,0.0,-999.0,39,0.00,,,0.00,MetarLogicWeatherSta,2013-03-10 13:36:00,
2013-03-10 09:41:00,48.1,24.4,30.11,WSW,247,1.0,-999.0,39,0.00,,,0.00,MetarLogicWeatherSta,2013-03-10 13:41:00,
2013-03-10 09:46:00,48.2,24.4,30.11,SSE,157,0.0,-999.0,39,0.00,,,0.00,MetarLogicWeatherSta,2013-03-10 13:46:00,
2013-03-10 09:51:00,48.4,24.7,30.11,SSE,157,0.0,-999.0,39,0.00,,,0.00,MetarLogicWeatherSta,2013-03-10 13:51:00,
2013-03-10 09:56:00,48.4,25.5,30.11,East,90,0.0,-999.0,40,0.00,,,0.00,MetarLogicWeatherSta,2013-03-10 13:56:00,
2013-03-10 10:01:00,48.6,25.0,30.10,SE,135,0.0,-999.0,39,0.00,,,0.00,MetarLogicWeatherSta,2013-03-10 14:01:00,
2013-03-10 10:06:00,48.9,24.6,30.10,ENE,67,6.0,-999.0,38,0.00,,,0.00,MetarLogicWeatherSta,2013-03-10 14:06:00,
2013-03-10 10:11:00,48.9,25.6,30.10,WSW,247,1.0,-999.0,39,0.00,,,0.00,MetarLogicWeatherSta,2013-03-10 14:11:00,
2013-03-10 10:16:00,49.2,25.8,30.10,East,90,4.0,-999.0,39,0.00,,,0.00,MetarLogicWeatherSta,2013-03-10 14:16:00,
2013-03-10 10:21:00,49.3,25.9,30.10,NE,45,1.0,-999.0,39,0.00,,,0.00,MetarLogicWeatherSta,2013-03-10 14:21:00,
2013-03-10 10:26:00,49.6,25.5,30.10,SSE,157,1.0,-999.0,38,0.00,,,0.00,MetarLogicWeatherSta,2013-03-10 14:26:00,
2013-03-10 10:33:00,49.9,25.2,30.10,South,180,0.0,-999.0,37,0.00,,,0.00,MetarLogicWeatherSta,2013-03-10 14:33:00,
2013-03-10 10:38:00,50.4,25.5,30.10,SSW,202,0.0,-999.0,37,0.00,,,0.00,MetarLogicWeatherSta,2013-03-10 14:38:00,
2013-03-10 10:43:00,51.0,26.0,30.11,SSE,157,1.0,-999.0,37,0.00,,,0.00,MetarLogicWeatherSta,2013-03-10 14:43:00,
2013-03-10 10:48:00,51.3,25.8,30.10,SSE,157,0.0,-999.0,36,0.00,,,0.00,MetarLogicWeatherSta,2013-03-10 14:48:00,
2013-03-10 10:53:00,51.6,25.4,30.10,SSW,202,1.0,-999.0,35,0.00,,,0.00,MetarLogicWeatherSta,2013-03-10 14:53:00,
2013-03-10 10:58:00,51.7,25.3,30.10,SSW,202,1.0,-999.0,35,0.00,,,0.00,MetarLogicWeatherSta,2013-03-10 14:58:00,
2013-03-10 11:03:00,51.7,25.8,30.10,SW,225,1.0,-999.0,36,0.00,,,0.00,MetarLogicWeatherSta,2013-03-10 15:03:00,
2013-03-10 11:08:00,51.7,25.5,30.10,SE,135,1.0,-999.0,35,0.00,,,0.00,MetarLogicWeatherSta,2013-03-10 15:08:00,
2013-03-10 11:13:00,51.4,25.4,30.10,SSW,202,0.0,-999.0,36,0.00,,,0.00,MetarLogicWeatherSta,2013-03-10 15:13:00,
2013-03-10 11:20:00,51.6,25.6,30.09,SSE,157,3.0,-999.0,36,0.00,,,0.00,MetarLogicWeatherSta,2013-03-10 15:20:00,
2013-03-10 11:25:00,51.7,25.8,30.09,ESE,112,1.0,-999.0,36,0.00,,,0.00,MetarLogicWeatherSta,2013-03-10 15:25:00,
2013-03-10 11:30:00,52.0,26.0,30.09,ENE,67,1.0,-999.0,36,0.00,,,0.00,MetarLogicWeatherSta,2013-03-10 15:30:00,
2013-03-10 11:35:00,52.0,25.7,30.09,South,180,0.0,-999.0,35,0.00,,,0.00,MetarLogicWeatherSta,2013-03-10 15:35:00,
2013-03-10 11:40:00,52.2,25.9,30.09,South,180,0.0,-999.0,35,0.00,,,0.00,MetarLogicWeatherSta,2013-03-10 15:40:00,
2013-03-10 11:46:00,52.1,25.0,30.09,East,90,0.0,-999.0,34,0.00,,,0.00,MetarLogicWeatherSta,2013-03-10 15:46:00,
2013-03-10 11:52:00,52.6,26.8,30.09,ENE,67,3.0,-999.0,36,0.00,,,0.00,MetarLogicWeatherSta,2013-03-10 15:52:00,
2013-03-10 11:59:00,53.3,26.0,30.09,South,180,3.0,-999.0,34,0.00,,,0.00,MetarLogicWeatherSta,2013-03-10 15:59:00,
2013-03-10 12:04:00,54.0,26.6,30.09,NE,45,3.0,-999.0,34,0.00,,,0.00,MetarLogicWeatherSta,2013-03-10 16:04:00,
2013-03-10 12:09:00,54.1,25.8,30.09,SE,135,1.0,-999.0,33,0.00,,,0.00,MetarLogicWeatherSta,2013-03-10 16:09:00,
2013-03-10 12:14:00,53.7,26.1,30.08,South,180,0.0,-999.0,34,0.00,,,0.00,MetarLogicWeatherSta,2013-03-10 16:14:00,
2013-03-10 12:19:00,53.5,25.9,30.08,SSW,202,0.0,-999.0,33,0.00,,,0.00,MetarLogicWeatherSta,2013-03-10 16:19:00,
2013-03-10 12:24:00,53.6,26.2,30.07,SW,225,3.0,-999.0,34,0.00,,,0.00,MetarLogicWeatherSta,2013-03-10 16:24:00,
2013-03-10 12:29:00,53.5,26.7,30.07,ENE,67,3.0,-999.0,35,0.00,,,0.00,MetarLogicWeatherSta,2013-03-10 16:29:00,
2013-03-10 12:34:00,53.8,27.1,30.07,WSW,247,1.0,-999.0,35,0.00,,,0.00,MetarLogicWeatherSta,2013-03-10 16:34:00,
2013-03-10 12:39:00,53.9,27.2,30.07,South,180,1.0,-999.0,35,0.00,,,0.00,MetarLogicWeatherSta,2013-03-10 16:39:00,
2013-03-10 12:44:00,54.3,27.0,30.07,SSW,202,0.0,-999.0,34,0.00,,,0.00,MetarLogicWeatherSta,2013-03-10 16:44:00,
2013-03-10 12:49:00,54.6,27.2,30.07,WSW,247,0.0,-999.0,34,0.00,,,0.00,MetarLogicWeatherSta,2013-03-10 16:49:00,
2013-03-10 12:54:00,54.7,27.7,30.07,SSE,157,0.0,-999.0,35,0.00,,,0.00,MetarLogicWeatherSta,2013-03-10 16:54:00,
2013-03-10 12:59:00,54.7,28.2,30.07,SE,135,0.0,-999.0,35,0.00,,,0.00,MetarLogicWeatherSta,2013-03-10 16:59:00,
2013-03-10 13:04:00,54.8,27.9,30.07,ENE,67,3.0,-999.0,35,0.00,,,0.00,MetarLogicWeatherSta,2013-03-10 17:04:00,
2013-03-10 13:09:00,54.8,28.1,30.07,South,180,3.0,-999.0,35,0.00,,,0.00,MetarLogicWeatherSta,2013-03-10 17:09:00,
2013-03-10 13:14:00,55.2,28.5,30.07,SW,225,1.0,-999.0,35,0.00,,,0.00,MetarLogicWeatherSta,2013-03-10 17:14:00,
2013-03-10 13:19:00,55.6,28.2,30.07,East,90,0.0,-999.0,34,0.00,,,0.00,MetarLogicWeatherSta,2013-03-10 17:19:00,
2013-03-10 13:24:00,55.7,29.8,30.07,East,90,3.0,-999.0,36,0.00,,,0.00,MetarLogicWeatherSta,2013-03-10 17:24:00,
2013-03-10 13:29:00,56.1,30.4,30.07,South,180,3.0,-999.0,37,0.00,,,0.00,MetarLogicWeatherSta,2013-03-10 17:29:00,
2013-03-10 13:34:00,57.5,30.5,30.06,SE,135,0.0,-999.0,35,0.00,,,0.00,MetarLogicWeatherSta,2013-03-10 17:34:00,
2013-03-10 13:39:00,57.8,30.1,30.06,SW,225,1.0,-999.0,34,0.00,,,0.00,MetarLogicWeatherSta,2013-03-10 17:39:00,
2013-03-10 13:44:00,57.9,29.6,30.05,South,180,0.0,-999.0,33,0.00,,,0.00,MetarLogicWeatherSta,2013-03-10 17:44:00,
2013-03-10 13:49:00,57.9,29.9,30.05,North,0,3.0,-999.0,34,0.00,,,0.00,MetarLogicWeatherSta,2013-03-10 17:49:00,
2013-03-10 13:54:00,58.2,29.4,30.05,NE,45,3.0,-999.0,33,0.00,,,0.00,MetarLogicWeatherSta,2013-03-10 17:54:00,
2013-03-10 13:59:00,58.2,28.3,30.05,WSW,247,1.0,-999.0,31,0.00,,,0.00,MetarLogicWeatherSta,2013-03-10 17:59:00,
2013-03-10 14:04:00,58.1,28.8,30.05,SE,135,0.0,-999.0,32,0.00,,,0.00,MetarLogicWeatherSta,2013-03-10 18:04:00,
2013-03-10 14:09:00,58.3,29.5,30.05,SSW,202,0.0,-999.0,33,0.00,,,0.00,MetarLogicWeatherSta,2013-03-10 18:09:00,
2013-03-10 14:14:00,58.4,29.6,30.05,NE,45,4.0,-999.0,33,0.00,,,0.00,MetarLogicWeatherSta,2013-03-10 18:14:00,
2013-03-10 14:19:00,59.2,30.6,30.05,NE,45,3.0,-999.0,33,0.00,,,0.00,MetarLogicWeatherSta,2013-03-10 18:19:00,
2013-03-10 14:24:00,60.6,31.3,30.05,South,180,4.0,-999.0,32,0.00,,,0.00,MetarLogicWeatherSta,2013-03-10 18:24:00,
2013-03-10 14:29:00,61.3,30.3,30.04,NE,45,0.0,-999.0,30,0.00,,,0.00,MetarLogicWeatherSta,2013-03-10 18:29:00,
2013-03-10 14:34:00,61.8,29.9,30.03,South,180,0.0,-999.0,29,0.00,,,0.00,MetarLogicWeatherSta,2013-03-10 18:34:00,
2013-03-10 14:39:00,61.9,30.6,30.03,WSW,247,1.0,-999.0,30,0.00,,,0.00,MetarLogicWeatherSta,2013-03-10 18:39:00,
2013-03-10 14:44:00,62.4,30.4,30.03,SW,225,3.0,-999.0,29,0.00,,,0.00,MetarLogicWeatherSta,2013-03-10 18:44:00,
2013-03-10 14:50:00,62.0,29.5,30.03,NE,45,3.0,-999.0,28,0.00,,,0.00,MetarLogicWeatherSta,2013-03-10 18:50:00,
2013-03-10 14:55:00,61.0,29.2,30.03,SW,225,0.0,-999.0,29,0.00,,,0.00,MetarLogicWeatherSta,2013-03-10 18:55:00,
2013-03-10 15:00:00,60.6,29.5,30.03,SW,225,3.0,-999.0,30,0.00,,,0.00,MetarLogicWeatherSta,2013-03-10 19:00:00,
2013-03-10 15:05:00,60.2,29.7,30.03,SE,135,0.0,-999.0,31,0.00,,,0.00,MetarLogicWeatherSta,2013-03-10 19:05:00,
2013-03-10 15:10:00,60.4,29.8,30.03,East,90,4.0,-999.0,31,0.00,,,0.00,MetarLogicWeatherSta,2013-03-10 19:10:00,
2013-03-10 15:15:00,60.2,30.0,30.02,ESE,112,1.0,-999.0,31,0.00,,,0.00,MetarLogicWeatherSta,2013-03-10 19:15:00,
2013-03-10 15:20:00,60.1,30.7,30.02,WSW,247,1.0,-999.0,32,0.00,,,0.00,MetarLogicWeatherSta,2013-03-10 19:20:00,
2013-03-10 15:25:00,60.2,30.2,30.01,NNW,337,3.0,-999.0,31,0.00,,,0.00,MetarLogicWeatherSta,2013-03-10 19:25:00,
2013-03-10 15:30:00,60.3,30.3,30.01,SE,135,0.0,-999.0,31,0.00,,,0.00,MetarLogicWeatherSta,2013-03-10 19:30:00,
2013-03-10 15:35:00,60.7,30.1,30.01,South,190,1.6,6.0,31,0.00,,,0.00,MetarLogicWeatherSta,2013-03-10 19:35:00,
2013-03-10 15:40:00,62.4,31.4,30.01,East,90,1.0,-999.0,30,0.00,,,0.00,MetarLogicWeatherSta,2013-03-10 19:40:00,
2013-03-10 15:45:00,62.6,30.1,30.01,SSW,202,1.0,-999.0,29,0.00,,,0.00,MetarLogicWeatherSta,2013-03-10 19:45:00,
2013-03-10 15:50:00,63.0,31.1,30.00,East,90,9.0,-999.0,29,0.00,,,0.00,MetarLogicWeatherSta,2013-03-10 19:50:00,
2013-03-10 15:55:00,62.5,29.3,30.00,ENE,67,7.0,-999.0,28,0.00,,,0.00,MetarLogicWeatherSta,2013-03-10 19:55:00,
2013-03-10 16:00:00,61.7,29.6,30.00,NW,315,3.0,-999.0,29,0.00,,,0.00,MetarLogicWeatherSta,2013-03-10 20:00:00,
2013-03-10 16:05:00,61.3,29.6,29.99,WSW,241,3.7,10.0,29,0.00,,,0.00,MetarLogicWeatherSta,2013-03-10 20:05:00,
2013-03-10 16:10:00,61.2,29.1,29.99,NE,45,10.0,-999.0,29,0.00,,,0.00,MetarLogicWeatherSta,2013-03-10 20:10:00,
2013-03-10 16:15:00,61.6,29.8,29.98,South,180,1.0,-999.0,29,0.00,,,0.00,MetarLogicWeatherSta,2013-03-10 20:15:00,
2013-03-10 16:20:00,61.7,29.6,29.98,SSW,202,7.0,-999.0,29,0.00,,,0.00,MetarLogicWeatherSta,2013-03-10 20:20:00,
2013-03-10 16:25:00,61.6,30.3,29.98,ENE,67,7.0,-999.0,30,0.00,,,0.00,MetarLogicWeatherSta,2013-03-10 20:25:00,
2013-03-10 16:30:00,61.6,29.7,29.98,NE,45,4.0,-999.0,29,0.00,,,0.00,MetarLogicWeatherSta,2013-03-10 20:30:00,
2013-03-10 16:35:00,61.8,30.2,29.98,SW,225,9.0,-999.0,30,0.00,,,0.00,MetarLogicWeatherSta,2013-03-10 20:35:00,
2013-03-10 16:40:00,61.4,29.6,29.98,ESE,112,0.0,-999.0,29,0.00,,,0.00,MetarLogicWeatherSta,2013-03-10 20:40:00,
2013-03-10 16:48:00,61.4,29.8,29.99,West,270,4.0,-999.0,29,0.00,,,0.00,MetarLogicWeatherSta,2013-03-10 20:48:00,
2013-03-10 16:53:00,61.1,31.0,29.98,NW,315,4.0,-999.0,31,0.00,,,0.00,MetarLogicWeatherSta,2013-03-10 20:53:00,
2013-03-10 16:58:00,61.1,30.5,29.98,SSW,202,3.0,-999.0,31,0.00,,,0.00,MetarLogicWeatherSta,2013-03-10 20:58:00,
2013-03-10 17:03:00,61.0,30.3,29.98,South,180,6.0,-999.0,31,0.00,,,0.00,MetarLogicWeatherSta,2013-03-10 21:03:00,
2013-03-10 17:08:00,60.8,30.8,29.98,ENE,67,1.0,-999.0,31,0.00,,,0.00,MetarLogicWeatherSta,2013-03-10 21:08:00,
2013-03-10 17:13:00,60.7,30.9,29.99,ESE,104,2.3,9.0,32,0.00,,,0.00,MetarLogicWeatherSta,2013-03-10 21:13:00,
2013-03-10 17:18:00,60.5,30.4,29.98,NNE,22,0.0,-999.0,31,0.00,,,0.00,MetarLogicWeatherSta,2013-03-10 21:18:00,
2013-03-10 17:23:00,60.1,29.9,29.98,East,90,6.0,-999.0,31,0.00,,,0.00,MetarLogicWeatherSta,2013-03-10 21:23:00,
2013-03-10 17:28:00,59.8,29.6,29.98,East,90,6.0,-999.0,31,0.00,,,0.00,MetarLogicWeatherSta,2013-03-10 21:28:00,
2013-03-10 17:33:00,59.6,29.6,29.98,North,0,1.0,-999.0,31,0.00,,,0.00,MetarLogicWeatherSta,2013-03-10 21:33:00,
2013-03-10 17:38:00,59.2,29.3,29.98,West,270,4.0,-999.0,31,0.00,,,0.00,MetarLogicWeatherSta,2013-03-10 21:38:00,
2013-03-10 17:43:00,59.2,29.6,29.98,East,90,3.0,-999.0,32,0.00,,,0.00,MetarLogicWeatherSta,2013-03-10 21:43:00,
2013-03-10 17:51:00,58.9,29.5,29.98,NE,45,3.0,-999.0,32,0.00,,,0.00,MetarLogicWeatherSta,2013-03-10 21:51:00,
2013-03-10 17:56:00,58.8,29.4,29.97,WSW,247,6.0,-999.0,32,0.00,,,0.00,MetarLogicWeatherSta,2013-03-10 21:56:00,
2013-03-10 18:01:00,58.4,29.1,29.97,NE,45,3.0,-999.0,32,0.00,,,0.00,MetarLogicWeatherSta,2013-03-10 22:01:00,
2013-03-10 18:06:00,58.1,29.3,29.97,SE,135,4.0,-999.0,33,0.00,,,0.00,MetarLogicWeatherSta,2013-03-10 22:06:00,
2013-03-10 18:11:00,58.0,28.8,29.98,West,270,4.0,-999.0,32,0.00,,,0.00,MetarLogicWeatherSta,2013-03-10 22:11:00,
2013-03-10 18:16:00,57.6,29.1,29.98,West,270,1.0,-999.0,33,0.00,,,0.00,MetarLogicWeatherSta,2013-03-10 22:16:00,
2013-03-10 18:21:00,57.6,29.2,29.98,South,180,6.0,-999.0,33,0.00,,,0.00,MetarLogicWeatherSta,2013-03-10 22:21:00,
2013-03-10 18:26:00,57.6,29.2,29.98,East,101,4.3,13.0,33,0.00,,,0.00,MetarLogicWeatherSta,2013-03-10 22:26:00,
2013-03-10 18:31:00,57.4,29.2,29.98,SW,225,0.0,-999.0,33,0.00,,,0.00,MetarLogicWeatherSta,2013-03-10 22:31:00,
2013-03-10 18:36:00,56.9,29.7,29.98,WSW,247,1.0,-999.0,35,0.00,,,0.00,MetarLogicWeatherSta,2013-03-10 22:36:00,
2013-03-10 18:41:00,56.6,29.2,29.98,SSW,202,1.0,-999.0,34,0.00,,,0.00,MetarLogicWeatherSta,2013-03-10 22:41:00,
2013-03-10 18:46:00,56.3,29.2,29.98,SSW,202,4.0,-999.0,35,0.00,,,0.00,MetarLogicWeatherSta,2013-03-10 22:46:00,
2013-03-10 18:51:00,56.1,29.0,29.98,South,180,0.0,-999.0,35,0.00,,,0.00,MetarLogicWeatherSta,2013-03-10 22:51:00,
2013-03-10 18:56:00,55.7,28.9,29.98,East,90,3.0,-999.0,35,0.00,,,0.00,MetarLogicWeatherSta,2013-03-10 22:56:00,
2013-03-10 19:01:00,55.6,29.3,29.98,East,90,3.0,-999.0,36,0.00,,,0.00,MetarLogicWeatherSta,2013-03-10 23:01:00,
2013-03-10 19:06:00,55.3,28.8,29.98,West,270,0.0,-999.0,35,0.00,,,0.00,MetarLogicWeatherSta,2013-03-10 23:06:00,
2013-03-10 19:11:00,55.2,28.7,29.99,South,180,0.0,-999.0,35,0.00,,,0.00,MetarLogicWeatherSta,2013-03-10 23:11:00,
2013-03-10 19:16:00,55.1,28.6,29.99,SE,135,0.0,-999.0,35,0.00,,,0.00,MetarLogicWeatherSta,2013-03-10 23:16:00,
2013-03-10 19:21:00,54.8,28.5,29.99,North,0,1.0,-999.0,36,0.00,,,0.00,MetarLogicWeatherSta,2013-03-10 23:21:00,
2013-03-10 19:26:00,54.8,28.7,29.99,SW,225,0.0,-999.0,36,0.00,,,0.00,MetarLogicWeatherSta,2013-03-10 23:26:00,
2013-03-10 19:31:00,54.8,28.7,30.01,SSW,202,1.0,-999.0,36,0.00,,,0.00,MetarLogicWeatherSta,2013-03-10 23:31:00,
2013-03-10 19:36:00,54.8,28.8,30.01,NNE,22,1.0,-999.0,36,0.00,,,0.00,MetarLogicWeatherSta,2013-03-10 23:36:00,
2013-03-10 19:41:00,54.6,29.1,30.01,SSW,202,0.0,-999.0,37,0.00,,,0.00,MetarLogicWeatherSta,2013-03-10 23:41:00,
2013-03-10 19:46:00,54.0,28.6,30.01,East,90,0.0,-999.0,37,0.00,,,0.00,MetarLogicWeatherSta,2013-03-10 23:46:00,
2013-03-10 19:51:00,53.9,28.8,30.01,ENE,67,1.0,-999.0,37,0.00,,,0.00,MetarLogicWeatherSta,2013-03-10 23:51:00,
2013-03-10 19:56:00,53.8,28.8,30.01,SSE,157,0.0,-999.0,37,0.00,,,0.00,MetarLogicWeatherSta,2013-03-10 23:56:00,
2013-03-10 20:01:00,53.7,28.9,30.01,ESE,112,0.0,-999.0,38,0.00,,,0.00,MetarLogicWeatherSta,2013-03-11 00:01:00,
2013-03-10 20:06:00,53.5,29.2,30.02,South,180,0.0,-999.0,38,0.00,,,0.00,MetarLogicWeatherSta,2013-03-11 00:06:00,
2013-03-10 20:11:00,53.2,28.7,30.02,South,180,0.0,-999.0,38,0.00,,,0.00,MetarLogicWeatherSta,2013-03-11 00:11:00,
2013-03-10 20:16:00,53.2,28.7,30.02,SSE,157,0.0,-999.0,38,0.00,,,0.00,MetarLogicWeatherSta,2013-03-11 00:16:00,
2013-03-10 20:21:00,52.9,29.0,30.02,SSE,157,0.0,-999.0,39,0.00,,,0.00,MetarLogicWeatherSta,2013-03-11 00:21:00,
2013-03-10 20:26:00,52.8,29.1,30.02,SSE,157,0.0,-999.0,39,0.00,,,0.00,MetarLogicWeatherSta,2013-03-11 00:26:00,
2013-03-10 20:31:00,53.0,28.8,30.01,SSE,157,0.0,-999.0,39,0.00,,,0.00,MetarLogicWeatherSta,2013-03-11 00:31:00,
2013-03-10 20:36:00,53.1,29.2,30.02,South,180,0.0,-999.0,39,0.00,,,0.00,MetarLogicWeatherSta,2013-03-11 00:36:00,
2013-03-10 20:41:00,53.0,29.3,30.01,SSW,202,0.0,-999.0,39,0.00,,,0.00,MetarLogicWeatherSta,2013-03-11 00:41:00,
2013-03-10 20:46:00,53.2,29.5,30.01,NNW,337,0.0,-999.0,39,0.00,,,0.00,MetarLogicWeatherSta,2013-03-11 00:46:00,
2013-03-10 20:51:00,53.5,29.8,30.01,SSE,157,0.0,-999.0,39,0.00,,,0.00,MetarLogicWeatherSta,2013-03-11 00:51:00,
2013-03-10 20:56:00,53.5,29.5,30.02,South,180,0.0,-999.0,39,0.00,,,0.00,MetarLogicWeatherSta,2013-03-11 00:56:00,
2013-03-10 21:01:00,53.4,29.3,30.02,South,180,0.0,-999.0,39,0.00,,,0.00,MetarLogicWeatherSta,2013-03-11 01:01:00,
2013-03-10 21:06:00,53.7,29.6,30.02,ESE,112,0.0,-999.0,39,0.00,,,0.00,MetarLogicWeatherSta,2013-03-11 01:06:00,
2013-03-10 21:11:00,53.5,29.6,30.03,SSW,202,1.0,-999.0,39,0.00,,,0.00,MetarLogicWeatherSta,2013-03-11 01:11:00,
2013-03-10 21:16:00,53.4,29.7,30.02,South,180,0.0,-999.0,39,0.00,,,0.00,MetarLogicWeatherSta,2013-03-11 01:16:00,
2013-03-10 21:21:00,53.1,29.9,30.02,SSW,202,0.0,-999.0,40,0.00,,,0.00,MetarLogicWeatherSta,2013-03-11 01:21:00,
2013-03-10 21:28:00,53.0,29.6,30.02,South,180,0.5,3.0,40,0.00,,,0.00,MetarLogicWeatherSta,2013-03-11 01:28:00,
2013-03-10 21:33:00,52.6,29.4,30.03,South,180,0.0,-999.0,40,0.00,,,0.00,MetarLogicWeatherSta,2013-03-11 01:33:00,
2013-03-10 21:38:00,52.5,29.7,30.03,South,180,0.0,-999.0,41,0.00,,,0.00,MetarLogicWeatherSta,2013-03-11 01:38:00,
2013-03-10 21:43:00,52.2,29.6,30.03,South,180,0.0,-999.0,41,0.00,,,0.00,MetarLogicWeatherSta,2013-03-11 01:43:00,
2013-03-10 21:48:00,52.0,29.2,30.03,East,90,4.0,-999.0,41,0.00,,,0.00,MetarLogicWeatherSta,2013-03-11 01:48:00,
2013-03-10 21:53:00,52.0,29.5,30.03,South,180,0.0,-999.0,41,0.00,,,0.00,MetarLogicWeatherSta,2013-03-11 01:53:00,
2013-03-10 21:58:00,52.0,29.6,30.03,SE,135,0.0,-999.0,41,0.00,,,0.00,MetarLogicWeatherSta,2013-03-11 01:58:00,
2013-03-10 22:03:00,52.1,29.6,30.03,SSE,157,0.0,-999.0,41,0.00,,,0.00,MetarLogicWeatherSta,2013-03-11 02:03:00,
2013-03-10 22:08:00,52.3,29.7,30.03,West,270,0.0,-999.0,41,0.00,,,0.00,MetarLogicWeatherSta,2013-03-11 02:08:00,
2013-03-10 22:13:00,52.2,29.8,30.03,South,180,0.0,-999.0,41,0.00,,,0.00,MetarLogicWeatherSta,2013-03-11 02:13:00,
2013-03-10 22:18:00,52.1,29.5,30.02,SE,135,0.0,-999.0,41,0.00,,,0.00,MetarLogicWeatherSta,2013-03-11 02:18:00,
2013-03-10 22:23:00,52.1,29.6,30.02,SE,135,0.0,-999.0,41,0.00,,,0.00,MetarLogicWeatherSta,2013-03-11 02:23:00,
2013-03-10 22:28:00,52.1,29.4,30.02,SSW,202,0.0,-999.0,41,0.00,,,0.00,MetarLogicWeatherSta,2013-03-11 02:28:00,
2013-03-10 22:33:00,52.4,29.5,30.02,South,180,0.0,-999.0,41,0.00,,,0.00,MetarLogicWeatherSta,2013-03-11 02:33:00,
2013-03-10 22:38:00,52.4,29.5,30.03,SSE,157,1.0,-999.0,41,0.00,,,0.00,MetarLogicWeatherSta,2013-03-11 02:38:00,
2013-03-10 22:43:00,52.5,29.4,30.03,ESE,112,0.0,-999.0,40,0.00,,,0.00,MetarLogicWeatherSta,2013-03-11 02:43:00,
2013-03-10 22:50:00,52.8,29.1,30.03,SSW,202,0.0,-999.0,39,0.00,,,0.00,MetarLogicWeatherSta,2013-03-11 02:50:00,
2013-03-10 22:55:00,52.8,29.3,30.02,NE,45,4.0,-999.0,40,0.00,,,0.00,MetarLogicWeatherSta,2013-03-11 02:55:00,
2013-03-10 23:00:00,52.6,29.0,30.01,NW,315,1.0,-999.0,39,0.00,,,0.00,MetarLogicWeatherSta,2013-03-11 03:00:00,
2013-03-10 23:05:00,52.6,28.8,29.99,WSW,247,1.0,-999.0,39,0.00,,,0.00,MetarLogicWeatherSta,2013-03-11 03:05:00,
2013-03-10 23:10:00,52.3,28.6,29.99,South,180,0.0,-999.0,39,0.00,,,0.00,MetarLogicWeatherSta,2013-03-11 03:10:00,
2013-03-10 23:15:00,52.3,29.1,29.99,SSW,202,1.0,-999.0,40,0.00,,,0.00,MetarLogicWeatherSta,2013-03-11 03:15:00,
2013-03-10 23:20:00,51.9,28.6,29.99,SE,135,0.0,-999.0,40,0.00,,,0.00,MetarLogicWeatherSta,2013-03-11 03:20:00,
2013-03-10 23:25:00,51.6,28.9,30.01,SSE,157,0.0,-999.0,41,0.00,,,0.00,MetarLogicWeatherSta,2013-03-11 03:25:00,
2013-03-10 23:30:00,51.2,28.5,29.99,SSE,157,0.0,-999.0,41,0.00,,,0.00,MetarLogicWeatherSta,2013-03-11 03:30:00,
2013-03-10 23:35:00,51.0,28.8,30.00,South,180,0.0,-999.0,41,0.00,,,0.00,MetarLogicWeatherSta,2013-03-11 03:35:00,
2013-03-10 23:40:00,50.6,28.5,30.00,SE,135,0.0,-999.0,42,0.00,,,0.00,MetarLogicWeatherSta,2013-03-11 03:40:00,
2013-03-10 23:45:00,50.6,28.7,29.99,SE,135,0.0,-999.0,42,0.00,,,0.00,MetarLogicWeatherSta,2013-03-11 03:45:00,
2013-03-10 23:52:00,50.3,28.7,29.99,ESE,112,0.0,-999.0,42,0.00,,,0.00,MetarLogicWeatherSta,2013-03-11 03:52:00,
2013-03-10 23:57:00,50.4,28.8,29.98,SSE,157,0.0,-999.0,42,0.00,,,0.00,MetarLogicWeatherSta,2013-03-11 03:57:00,